Kenroy, Washington
Current Conditions -  °F | °C
As of 12:55 PM on Thursday 18 Dec 2014 (Local Time) from KEAT Reporting Station
Haze Haze  
Wind Chill: 39°   Ceiling: 1900
Heat Index: 39°   Visibility: 4mi
Dew Point: 36°   Wind: 3mph
Humidity: 89%   Direction: 130°SE
Pressure: 29.97"   Gusts: NA
Location:  47.3635°N, 120.348°W
Report Text: KEAT 182055Z AUTO 13003KT 4SM BR FEW003 OVC019 04/02 A2997 RMK AO2 SLP158 T00390022 58012
Loading
Personal Weather Stations






























Interactive Weather Map New forecast layout! Learn more

10-Day Weather Forecast

Advertisements
Track Severe Weather on mobile